Time;durP1;ratioP1;P1;durP2;ratioP2;P2;SDS_P1;SDS_P2;PMS_P1;PMS_P2;Temp;Humidity;BMP_temperature;BMP_pressure;BME280_temperature;BME280_humidity;BME280_pressure;Samples;Min_cycle;Max_cycle;Signal;HPM_P1;HPM_P2
2023/10/13 00:02:11;;;;;;;15.77;9.73;;;17.00;99.90;;;;;;5051683;28;20227;-76
2023/10/13 00:04:37;;;;;;;14.10;9.40;;;17.00;99.90;;;;;;5054834;28;20175;-76
2023/10/13 00:07:04;;;;;;;14.00;9.70;;;16.90;99.90;;;;;;5054779;28;20260;-76
2023/10/13 00:09:36;;;;;;;14.73;9.97;;;17.00;99.90;;;;;;5053169;28;20178;-76
2023/10/13 00:12:04;;;;;;;12.93;9.20;;;17.00;99.90;;;;;;5040123;28;20200;-76
2023/10/13 00:14:33;;;;;;;13.03;8.97;;;16.90;99.90;;;;;;5033143;28;20176;-76
2023/10/13 00:17:03;;;;;;;22.33;9.50;;;17.00;99.90;;;;;;5034387;28;20263;-76
2023/10/13 00:19:46;;;;;;;15.63;9.30;;;17.00;99.90;;;;;;5034468;28;20250;-76
2023/10/13 00:22:16;;;;;;;13.13;8.90;;;17.00;99.90;;;;;;5048065;28;20283;-76
2023/10/13 00:24:43;;;;;;;18.20;9.50;;;17.00;99.90;;;;;;5042419;28;20180;-76
2023/10/13 00:27:35;;;;;;;13.40;8.10;;;17.00;99.90;;;;;;5034453;28;20192;-76
2023/10/13 00:32:55;;;;;;;14.97;8.47;;;17.00;99.90;;;;;;5034002;28;20199;-75
2023/10/13 00:35:36;;;;;;;13.93;8.83;;;17.00;99.90;;;;;;5034083;28;20188;-76
2023/10/13 00:38:18;;;;;;;16.70;8.80;;;17.00;99.90;;;;;;5032760;28;20264;-76
2023/10/13 00:40:51;;;;;;;14.40;8.37;;;17.00;99.90;;;;;;5037642;28;20199;-75
2023/10/13 00:46:06;;;;;;;13.13;8.70;;;17.00;99.90;;;;;;5054122;28;20225;-76
2023/10/13 00:48:43;;;;;;;14.97;9.13;;;17.00;99.90;;;;;;5052481;28;20176;-76
2023/10/13 00:51:34;;;;;;;13.60;8.40;;;17.00;99.90;;;;;;5052687;28;20202;-75
2023/10/13 00:53:57;;;;;;;14.53;8.73;;;17.00;99.90;;;;;;5053341;28;20211;-76
2023/10/13 00:56:26;;;;;;;15.27;8.80;;;17.00;99.90;;;;;;5053580;28;20233;-75
2023/10/13 00:58:57;;;;;;;13.63;8.70;;;17.00;99.90;;;;;;5053823;28;20480;-76
2023/10/13 01:01:29;;;;;;;11.43;8.43;;;17.00;99.90;;;;;;5052458;28;20190;-76
2023/10/13 01:03:59;;;;;;;16.83;8.67;;;17.00;99.90;;;;;;5050720;28;20590;-76
2023/10/13 01:06:26;;;;;;;13.57;8.80;;;17.00;99.90;;;;;;5053421;28;20777;-76
2023/10/13 01:09:13;;;;;;;13.20;8.10;;;17.00;99.90;;;;;;5053424;28;20225;-76
2023/10/13 01:11:53;;;;;;;17.00;8.47;;;17.00;99.90;;;;;;5052136;28;20550;-76
2023/10/13 01:14:20;;;;;;;11.20;7.93;;;17.00;99.90;;;;;;5053193;28;20148;-76
2023/10/13 01:16:47;;;;;;;14.47;9.67;;;17.00;99.90;;;;;;5053429;28;20192;-76
2023/10/13 01:19:16;;;;;;;15.53;8.90;;;17.00;99.90;;;;;;5053041;28;20183;-76
2023/10/13 01:21:44;;;;;;;12.40;8.77;;;17.00;99.90;;;;;;5047246;28;20180;-75
2023/10/13 01:24:13;;;;;;;12.93;9.10;;;17.00;99.90;;;;;;5036436;28;20215;-76
2023/10/13 01:26:40;;;;;;;14.17;9.57;;;17.00;99.90;;;;;;5031775;28;20246;-76
2023/10/13 01:29:14;;;;;;;14.47;9.63;;;17.00;99.90;;;;;;5033049;28;20337;-76
2023/10/13 01:31:47;;;;;;;11.30;8.57;;;17.00;99.90;;;;;;5041740;28;20202;-76
2023/10/13 01:34:21;;;;;;;11.87;8.43;;;17.00;99.90;;;;;;5053073;28;20151;-76
2023/10/13 01:36:52;;;;;;;10.70;8.87;;;17.00;99.90;;;;;;5051516;28;20171;-75
2023/10/13 01:39:26;;;;;;;14.07;8.57;;;17.00;99.90;;;;;;5051056;28;20226;-77
2023/10/13 01:41:55;;;;;;;15.70;9.33;;;16.80;99.90;;;;;;5050856;28;20207;-76
2023/10/13 01:44:21;;;;;;;10.70;8.73;;;17.00;99.90;;;;;;5052608;28;20209;-76
2023/10/13 01:46:47;;;;;;;11.33;8.73;;;16.90;99.90;;;;;;5052481;28;20174;-75
2023/10/13 01:49:15;;;;;;;12.57;8.60;;;17.00;99.90;;;;;;5052646;28;20168;-76
2023/10/13 01:51:42;;;;;;;12.27;8.63;;;16.90;99.90;;;;;;5049908;28;20655;-76
2023/10/13 01:54:11;;;;;;;12.87;9.37;;;17.00;99.90;;;;;;5052404;28;20255;-76
2023/10/13 01:56:42;;;;;;;15.23;8.53;;;16.90;99.90;;;;;;5052114;28;20539;-77
2023/10/13 01:59:09;;;;;;;12.80;8.80;;;17.00;99.90;;;;;;5034274;28;20263;-75
2023/10/13 02:01:35;;;;;;;11.47;8.63;;;16.90;99.90;;;;;;5032459;28;20168;-76
2023/10/13 02:04:04;;;;;;;12.50;8.47;;;16.90;99.90;;;;;;5032344;28;20196;-76
2023/10/13 02:06:34;;;;;;;13.30;8.63;;;16.90;99.90;;;;;;5031063;28;20174;-76
2023/10/13 02:09:12;;;;;;;11.90;8.10;;;16.90;99.90;;;;;;5041231;28;20190;-76
2023/10/13 02:11:45;;;;;;;16.50;9.27;;;16.90;99.90;;;;;;5030872;28;20180;-77
2023/10/13 02:14:11;;;;;;;15.13;8.80;;;17.00;99.90;;;;;;5032327;28;20159;-76
2023/10/13 02:16:37;;;;;;;12.93;8.53;;;16.90;99.90;;;;;;5032345;28;20172;-76
2023/10/13 02:19:08;;;;;;;13.70;8.40;;;16.90;99.90;;;;;;5047681;28;20525;-76
2023/10/13 02:21:39;;;;;;;14.33;8.23;;;16.90;99.90;;;;;;5052189;28;20152;-76
2023/10/13 02:24:18;;;;;;;13.67;8.77;;;16.90;99.90;;;;;;5052398;28;20152;-76
2023/10/13 02:26:45;;;;;;;14.60;8.27;;;16.90;99.90;;;;;;5052101;28;20168;-75
2023/10/13 02:29:13;;;;;;;12.70;8.60;;;16.90;99.90;;;;;;5049395;28;20213;-76
2023/10/13 02:31:40;;;;;;;13.17;8.73;;;16.90;99.90;;;;;;5037612;28;20200;-75
2023/10/13 02:34:12;;;;;;;10.77;8.77;;;16.90;99.90;;;;;;5032455;28;20181;-75
2023/10/13 02:36:51;;;;;;;12.70;9.70;;;17.00;99.90;;;;;;5032121;28;20179;-76
2023/10/13 02:39:24;;;;;;;10.63;8.47;;;16.90;99.90;;;;;;5049096;28;20183;-76
2023/10/13 02:41:50;;;;;;;16.23;8.63;;;17.00;99.90;;;;;;5049214;28;20180;-76
2023/10/13 02:44:30;;;;;;;12.23;8.73;;;17.00;99.90;;;;;;5046667;28;20204;-76
2023/10/13 02:46:57;;;;;;;15.73;8.53;;;16.90;99.90;;;;;;5032507;28;20283;-76
2023/10/13 02:49:26;;;;;;;16.07;8.73;;;17.00;99.90;;;;;;5031867;28;20842;-76
2023/10/13 02:51:52;;;;;;;13.33;8.40;;;16.90;99.90;;;;;;5046791;28;20179;-76
2023/10/13 02:54:19;;;;;;;12.07;8.67;;;16.90;99.90;;;;;;5052058;28;20176;-76
2023/10/13 02:56:58;;;;;;;13.47;8.33;;;16.90;99.90;;;;;;5051868;28;20655;-75
2023/10/13 02:59:34;;;;;;;9.23;8.30;;;17.00;99.90;;;;;;5051881;28;20662;-76
2023/10/13 03:02:07;;;;;;;15.30;9.73;;;16.90;99.90;;;;;;5050585;28;20199;-76
2023/10/13 03:04:32;;;;;;;16.60;9.53;;;17.00;99.90;;;;;;5055623;28;20186;-75
2023/10/13 03:06:59;;;;;;;14.40;9.47;;;17.00;99.90;;;;;;5055589;28;20174;-76
2023/10/13 03:09:25;;;;;;;11.77;8.57;;;16.90;99.90;;;;;;5055480;28;20544;-76
2023/10/13 03:11:51;;;;;;;12.83;8.90;;;17.00;99.90;;;;;;5038215;28;20185;-76
2023/10/13 03:14:24;;;;;;;15.50;9.07;;;16.90;99.90;;;;;;5035526;28;20199;-76
2023/10/13 03:16:53;;;;;;;12.37;8.80;;;17.00;99.90;;;;;;5035290;28;20177;-75
2023/10/13 03:19:19;;;;;;;16.53;10.03;;;17.00;99.90;;;;;;5035098;28;20184;-76
2023/10/13 03:21:54;;;;;;;15.87;9.30;;;17.00;99.90;;;;;;5048372;28;20180;-76
2023/10/13 03:24:33;;;;;;;16.90;9.10;;;16.90;99.90;;;;;;5055333;28;20171;-76
2023/10/13 03:26:59;;;;;;;11.83;9.30;;;16.90;99.90;;;;;;5055095;28;20623;-74
2023/10/13 03:29:30;;;;;;;17.10;10.43;;;17.00;99.90;;;;;;5053535;28;20270;-75
2023/10/13 03:32:06;;;;;;;14.37;9.47;;;16.90;99.90;;;;;;5037516;28;20561;-75
2023/10/13 03:34:32;;;;;;;14.83;10.63;;;17.00;99.90;;;;;;5033679;28;20171;-76
2023/10/13 03:36:58;;;;;;;16.83;10.47;;;17.00;99.90;;;;;;5034915;28;20176;-76
2023/10/13 03:39:30;;;;;;;13.13;9.47;;;17.00;99.90;;;;;;5033501;28;20227;-76
2023/10/13 03:41:57;;;;;;;12.07;10.20;;;17.00;99.90;;;;;;5047968;28;20179;-76
2023/10/13 03:44:23;;;;;;;12.40;10.33;;;17.00;99.90;;;;;;5054639;28;20539;-75
2023/10/13 03:46:48;;;;;;;12.60;10.17;;;17.00;99.90;;;;;;5054721;28;20187;-76
2023/10/13 03:49:25;;;;;;;12.97;10.17;;;17.00;99.90;;;;;;5053598;28;20179;-76
2023/10/13 03:51:54;;;;;;;18.33;10.43;;;17.00;99.90;;;;;;5053411;28;20175;-76
2023/10/13 03:54:20;;;;;;;12.80;9.97;;;17.00;99.90;;;;;;5053183;28;20206;-76
2023/10/13 03:56:45;;;;;;;20.03;10.90;;;17.00;99.90;;;;;;5054616;28;20648;-76
2023/10/13 04:01:45;;;;;;;15.03;10.23;;;17.00;99.90;;;;;;5053354;28;20187;-76
2023/10/13 04:04:14;;;;;;;13.40;10.93;;;17.00;99.90;;;;;;5054680;28;20148;-75
2023/10/13 04:17:22;;;;;;;12.77;10.07;;;17.00;99.90;;;;;;5054159;28;20599;-76
2023/10/13 04:39:00;;;;;;;15.27;10.63;;;16.90;99.90;;;;;;5054161;28;20163;-76
2023/10/13 04:42:13;;;;;;;16.73;10.70;;;16.90;99.90;;;;;;5052354;28;20208;-76
2023/10/13 04:49:28;;;;;;;20.33;12.37;;;17.00;99.90;;;;;;5053498;28;20553;-76
2023/10/13 04:52:26;;;;;;;14.53;10.97;;;17.00;99.90;;;;;;5052358;28;20562;-76
2023/10/13 05:02:43;;;;;;;21.90;11.23;;;17.00;99.90;;;;;;5052330;28;20206;-76
2023/10/13 05:51:33;;;;;;;19.10;11.80;;;17.10;99.90;;;;;;5051633;28;20275;-75
2023/10/13 06:29:49;;;;;;;12.70;7.20;;;17.40;99.90;;;;;;5052135;28;20241;-77
2023/10/13 06:32:16;;;;;;;24.33;7.83;;;17.40;99.90;;;;;;5033572;28;20235;-77
2023/10/13 06:34:45;;;;;;;16.37;7.27;;;17.50;99.90;;;;;;5032442;28;20184;-77
2023/10/13 06:37:23;;;;;;;20.83;7.33;;;17.40;99.90;;;;;;5032082;28;20179;-77
2023/10/13 06:40:06;;;;;;;15.33;6.90;;;17.40;99.90;;;;;;5034735;28;20222;-77
2023/10/13 06:42:34;;;;;;;13.73;7.27;;;17.40;99.90;;;;;;5055481;28;20195;-77
2023/10/13 06:45:03;;;;;;;20.23;7.13;;;17.40;99.90;;;;;;5056005;28;20599;-77
2023/10/13 06:47:28;;;;;;;18.30;7.67;;;17.50;99.90;;;;;;5054602;28;20176;-76
2023/10/13 06:49:56;;;;;;;17.37;7.73;;;17.40;99.90;;;;;;5055789;28;20171;-77
2023/10/13 06:52:22;;;;;;;27.97;7.93;;;17.40;99.90;;;;;;5054541;28;20663;-77
2023/10/13 06:54:55;;;;;;;18.40;8.10;;;17.50;99.90;;;;;;5055744;28;20254;-76
2023/10/13 06:57:21;;;;;;;16.50;8.20;;;17.60;99.90;;;;;;5055661;28;20639;-76
2023/10/13 06:59:47;;;;;;;15.03;8.30;;;17.60;99.90;;;;;;5055538;28;20298;-77
2023/10/13 07:02:21;;;;;;;18.87;7.13;;;17.60;99.90;;;;;;5054281;28;20195;-75
2023/10/13 07:04:48;;;;;;;19.30;7.93;;;17.60;99.90;;;;;;5054205;28;20174;-76
2023/10/13 07:07:15;;;;;;;15.70;8.67;;;17.60;99.90;;;;;;5055474;28;20716;-76
2023/10/13 07:09:55;;;;;;;23.33;8.97;;;17.60;99.90;;;;;;5055110;28;20625;-76
2023/10/13 07:12:26;;;;;;;17.90;8.43;;;17.60;99.90;;;;;;5054236;28;20209;-76
2023/10/13 07:14:52;;;;;;;18.37;9.47;;;17.70;99.90;;;;;;5055765;28;20246;-76
2023/10/13 07:17:25;;;;;;;16.90;8.87;;;17.70;99.90;;;;;;5053997;28;20219;-75
2023/10/13 07:19:56;;;;;;;15.97;9.47;;;17.70;99.90;;;;;;5055423;28;20211;-76
2023/10/13 07:22:23;;;;;;;15.27;9.10;;;17.80;99.90;;;;;;5054020;28;20563;-76
2023/10/13 07:24:50;;;;;;;15.43;8.93;;;17.70;99.90;;;;;;5053775;28;20172;-76
2023/10/13 07:27:25;;;;;;;17.77;9.33;;;17.70;99.90;;;;;;5053792;28;20176;-76
2023/10/13 07:30:06;;;;;;;16.73;10.17;;;17.80;99.90;;;;;;5053528;28;20700;-76
2023/10/13 07:32:33;;;;;;;21.47;10.10;;;17.80;99.90;;;;;;5052426;28;20207;-77
2023/10/13 07:35:08;;;;;;;18.63;10.83;;;17.80;99.90;;;;;;5053333;28;20723;-78
2023/10/13 07:37:33;;;;;;;18.10;10.73;;;17.70;99.90;;;;;;5054422;28;20155;-77
2023/10/13 07:39:59;;;;;;;19.13;10.70;;;17.80;99.90;;;;;;5052832;28;20725;-77
2023/10/13 07:42:38;;;;;;;26.80;10.33;;;17.80;99.90;;;;;;5051734;28;20702;-77
2023/10/13 07:45:05;;;;;;;14.87;10.30;;;17.80;99.90;;;;;;5054493;28;20458;-77
2023/10/13 07:47:32;;;;;;;18.13;10.03;;;17.90;99.90;;;;;;5054563;28;20543;-78
2023/10/13 07:49:58;;;;;;;18.93;9.63;;;17.90;99.90;;;;;;5053397;28;20194;-77
2023/10/13 07:52:26;;;;;;;18.00;9.97;;;17.90;99.90;;;;;;5034390;28;20739;-77
2023/10/13 07:57:52;;;;;;;17.00;9.00;;;17.90;99.90;;;;;;5034745;28;20573;-78
2023/10/13 08:06:18;;;;;;;20.93;9.63;;;18.00;99.90;;;;;;5033213;28;20180;-77
2023/10/13 08:08:49;;;;;;;16.23;9.77;;;18.10;99.90;;;;;;5033369;28;20172;-78
2023/10/13 08:11:24;;;;;;;17.90;10.10;;;18.00;99.90;;;;;;5041062;28;20673;-77
2023/10/13 08:13:54;;;;;;;15.17;9.77;;;18.10;99.90;;;;;;5054385;28;20187;-78
2023/10/13 08:16:21;;;;;;;20.43;8.90;;;18.10;99.90;;;;;;5053664;28;20179;-78
2023/10/13 08:18:49;;;;;;;16.50;9.10;;;18.10;99.90;;;;;;5055061;28;20174;-78
2023/10/13 08:21:31;;;;;;;18.00;10.03;;;18.00;99.90;;;;;;5053216;28;20678;-77
2023/10/13 08:23:59;;;;;;;19.67;9.70;;;18.20;99.90;;;;;;5053788;28;20183;-77
2023/10/13 08:26:32;;;;;;;20.67;9.63;;;18.20;99.90;;;;;;5053951;28;20251;-77
2023/10/13 08:29:53;;;;;;;12.93;9.07;;;18.20;99.90;;;;;;5054076;28;20569;-77
2023/10/13 08:32:04;;;;;;;21.53;9.20;;;18.20;99.90;;;;;;5015998;28;1044858;-77
2023/10/13 08:35:10;;;;;;;21.83;9.50;;;18.20;99.90;;;;;;5034497;28;20279;-77
2023/10/13 08:37:32;;;;;;;17.00;9.00;;;18.30;99.90;;;;;;5048710;28;20210;-77
2023/10/13 08:47:54;;;;;;;13.70;8.20;;;18.40;99.90;;;;;;5053678;28;20179;-77
2023/10/13 08:51:03;;;;;;;20.00;9.33;;;18.50;99.90;;;;;;5052199;28;20188;-77
2023/10/13 09:12:28;;;;;;;17.57;8.10;;;18.70;99.90;;;;;;5060231;28;20210;-78
2023/10/13 09:14:58;;;;;;;20.07;7.80;;;18.80;99.90;;;;;;5059376;28;20155;-79
2023/10/13 09:17:35;;;;;;;19.17;8.03;;;18.90;99.90;;;;;;5060701;28;20211;-78
2023/10/13 09:25:36;;;;;;;15.37;7.83;;;19.10;99.90;;;;;;5068795;28;20167;-78
2023/10/13 09:28:09;;;;;;;14.60;8.13;;;19.10;99.90;;;;;;5061856;28;20191;-78
2023/10/13 09:30:45;;;;;;;17.80;7.17;;;19.10;99.90;;;;;;5058297;28;20294;-78
2023/10/13 09:33:20;;;;;;;18.50;7.20;;;19.20;99.90;;;;;;5052788;28;20218;-79
2023/10/13 09:35:53;;;;;;;16.63;7.50;;;19.30;99.90;;;;;;5059230;28;20183;-78
2023/10/13 09:38:20;;;;;;;13.70;7.73;;;19.40;99.90;;;;;;5059431;28;20167;-78
2023/10/13 09:40:49;;;;;;;19.17;7.23;;;19.50;99.90;;;;;;5058348;28;20202;-78
2023/10/13 09:43:17;;;;;;;16.30;6.73;;;19.50;99.90;;;;;;5058956;28;20184;-79
2023/10/13 09:48:36;;;;;;;18.60;6.93;;;19.60;99.90;;;;;;5058770;28;20170;-78
2023/10/13 09:51:08;;;;;;;12.57;5.90;;;19.60;99.90;;;;;;5052392;28;20223;-79
2023/10/13 09:53:37;;;;;;;13.47;5.73;;;19.80;99.90;;;;;;5046751;28;20277;-79
2023/10/13 09:56:19;;;;;;;15.70;5.97;;;19.90;99.90;;;;;;5036174;28;20169;-79
2023/10/13 09:59:08;;;;;;;17.40;6.37;;;20.00;99.90;;;;;;5034727;28;20164;-78
2023/10/13 10:01:57;;;;;;;18.67;6.10;;;20.10;99.90;;;;;;5034958;28;20200;-79
2023/10/13 10:04:23;;;;;;;12.63;6.10;;;20.20;99.90;;;;;;5037917;28;20180;-79
2023/10/13 10:06:56;;;;;;;12.87;6.00;;;20.30;99.90;;;;;;5036590;28;20191;-80
2023/10/13 10:09:39;;;;;;;12.10;6.10;;;20.40;99.90;;;;;;5034337;28;20176;-79
2023/10/13 10:12:38;;;;;;;11.87;6.03;;;20.40;99.90;;;;;;5043716;28;20281;-79
2023/10/13 10:15:30;;;;;;;12.87;6.47;;;20.50;99.90;;;;;;5054818;28;20643;-80
2023/10/13 10:17:56;;;;;;;12.67;6.20;;;20.60;99.90;;;;;;5051516;28;20543;-77
2023/10/13 10:20:44;;;;;;;15.23;6.60;;;20.60;99.90;;;;;;5051736;28;20203;-75
2023/10/13 10:23:17;;;;;;;13.27;6.63;;;20.60;99.90;;;;;;5049786;28;20207;-75
2023/10/13 10:25:46;;;;;;;15.13;6.43;;;20.60;99.90;;;;;;5052469;28;20334;-74
2023/10/13 10:28:15;;;;;;;8.77;5.67;;;20.60;99.90;;;;;;5052257;28;20202;-76
2023/10/13 10:30:42;;;;;;;12.73;6.30;;;20.60;99.90;;;;;;5050756;28;20485;-77
2023/10/13 10:33:18;;;;;;;15.77;5.87;;;20.70;99.90;;;;;;5050907;28;20211;-76
2023/10/13 10:35:58;;;;;;;12.67;6.10;;;20.80;99.90;;;;;;5050788;28;20664;-74
2023/10/13 10:38:24;;;;;;;15.37;6.23;;;20.80;99.90;;;;;;5050748;28;20627;-75
2023/10/13 10:40:52;;;;;;;10.80;6.10;;;20.80;99.90;;;;;;5053088;28;20279;-77
2023/10/13 10:43:18;;;;;;;12.10;6.17;;;20.80;99.90;;;;;;5032478;28;20196;-77
2023/10/13 10:45:50;;;;;;;18.50;6.20;;;20.90;99.90;;;;;;5032487;28;20179;-76
2023/10/13 10:48:20;;;;;;;13.07;6.53;;;21.00;99.90;;;;;;5031255;28;20655;-77
2023/10/13 10:50:55;;;;;;;14.67;6.07;;;21.00;99.90;;;;;;5032248;28;20164;-78
2023/10/13 10:53:35;;;;;;;10.93;6.10;;;21.00;99.90;;;;;;5049656;28;20257;-77
2023/10/13 10:56:05;;;;;;;11.43;5.93;;;20.90;99.90;;;;;;5052314;28;20171;-78
2023/10/13 10:58:43;;;;;;;12.53;6.50;;;20.90;99.90;;;;;;5052336;28;20530;-77
2023/10/13 11:01:18;;;;;;;11.53;6.30;;;20.90;99.90;;;;;;5051133;28;20260;-77
2023/10/13 11:03:55;;;;;;;13.63;6.10;;;20.90;99.90;;;;;;5032049;28;20183;-77
2023/10/13 11:06:24;;;;;;;12.03;6.23;;;20.90;99.90;;;;;;5030744;28;20173;-77
2023/10/13 11:08:52;;;;;;;14.23;6.10;;;20.90;99.90;;;;;;5030988;28;20188;-76
2023/10/13 11:11:34;;;;;;;11.93;6.60;;;21.00;99.90;;;;;;5031741;28;20177;-78
2023/10/13 11:14:13;;;;;;;12.57;6.70;;;21.00;99.90;;;;;;5051721;28;20625;-77
2023/10/13 11:16:55;;;;;;;9.20;5.97;;;21.10;99.90;;;;;;5052477;28;20156;-77
2023/10/13 11:19:25;;;;;;;15.23;6.57;;;21.10;99.90;;;;;;5050759;28;20167;-78
2023/10/13 11:21:52;;;;;;;12.90;6.00;;;21.20;99.90;;;;;;5051058;28;20199;-78
2023/10/13 11:24:18;;;;;;;14.13;6.43;;;21.20;99.90;;;;;;5052238;28;20181;-76
2023/10/13 11:26:50;;;;;;;11.37;6.10;;;21.30;99.90;;;;;;5055340;28;20171;-76
2023/10/13 11:29:20;;;;;;;15.70;5.87;;;21.30;99.90;;;;;;5055373;28;20144;-77
2023/10/13 11:31:53;;;;;;;10.90;5.83;;;21.30;99.90;;;;;;5055228;28;20184;-77
2023/10/13 11:34:19;;;;;;;11.53;5.90;;;21.30;99.90;;;;;;5055364;28;20233;-77
2023/10/13 11:36:45;;;;;;;18.47;6.27;;;21.40;99.90;;;;;;5054163;28;20179;-77
2023/10/13 11:39:19;;;;;;;15.70;5.83;;;21.40;99.90;;;;;;5055931;28;20176;-75
2023/10/13 11:41:53;;;;;;;17.77;5.83;;;21.60;99.90;;;;;;5053147;28;20183;-75
2023/10/13 11:49:18;;;;;;;16.20;5.93;;;21.90;99.90;;;;;;5054590;28;20845;-79
2023/10/13 11:51:48;;;;;;;13.33;5.43;;;22.00;99.90;;;;;;5057964;28;20180;-79
2023/10/13 11:54:14;;;;;;;17.50;5.50;;;22.00;99.90;;;;;;5054093;28;20180;-79
2023/10/13 11:56:41;;;;;;;18.17;5.73;;;22.10;99.90;;;;;;5042649;28;20717;-77
2023/10/13 11:59:15;;;;;;;17.63;6.13;;;22.20;99.90;;;;;;5034315;28;20180;-77
2023/10/13 12:04:59;;;;;;;20.17;6.13;;;22.30;99.90;;;;;;5035404;28;20171;-78
2023/10/13 12:12:22;;;;;;;11.97;5.40;;;22.40;99.90;;;;;;5047332;28;20203;-77
2023/10/13 12:14:57;;;;;;;12.47;6.00;;;22.60;99.90;;;;;;5055920;28;20187;-78
2023/10/13 12:17:34;;;;;;;20.17;5.40;;;22.60;99.90;;;;;;5058507;28;20155;-79
2023/10/13 12:20:10;;;;;;;15.43;5.37;;;22.70;99.90;;;;;;5057926;28;20608;-79
2023/10/13 12:22:42;;;;;;;14.20;5.03;;;22.60;99.90;;;;;;5040487;28;20199;-80
2023/10/13 12:25:24;;;;;;;18.10;5.70;;;22.60;99.90;;;;;;5037290;28;20152;-80
2023/10/13 12:27:56;;;;;;;15.27;5.10;;;22.60;99.90;;;;;;5037409;28;20153;-79
2023/10/13 12:30:48;;;;;;;16.33;5.27;;;22.60;99.90;;;;;;5036728;28;20188;-80
2023/10/13 12:33:16;;;;;;;19.70;5.57;;;22.60;99.90;;;;;;5038225;28;20204;-79
2023/10/13 12:35:58;;;;;;;15.33;5.20;;;22.60;99.90;;;;;;5035619;28;20251;-80
2023/10/13 12:52:05;;;;;;;14.87;5.37;;;22.40;99.90;;;;;;5043106;28;20690;-80
2023/10/13 12:54:38;;;;;;;17.00;5.33;;;22.50;99.90;;;;;;5035402;28;20271;-79
2023/10/13 12:57:09;;;;;;;21.73;5.20;;;22.50;99.90;;;;;;5034850;28;20299;-79
2023/10/13 12:59:34;;;;;;;16.00;5.27;;;22.50;99.90;;;;;;5034052;28;20318;-78
2023/10/13 13:02:06;;;;;;;18.60;5.60;;;22.50;99.90;;;;;;5044230;28;20679;-78
2023/10/13 13:04:36;;;;;;;17.83;6.00;;;22.40;99.90;;;;;;5053685;28;20156;-78
2023/10/13 13:07:03;;;;;;;18.70;5.50;;;22.40;99.90;;;;;;5053736;28;20663;-78
2023/10/13 13:09:28;;;;;;;19.90;5.37;;;22.40;99.90;;;;;;5054554;28;20171;-78
2023/10/13 13:11:57;;;;;;;16.43;5.00;;;22.50;99.90;;;;;;5044014;28;20215;-78
2023/10/13 13:14:30;;;;;;;15.03;5.27;;;22.60;99.90;;;;;;5033696;28;20173;-78
2023/10/13 13:17:04;;;;;;;24.57;5.27;;;22.60;99.90;;;;;;5034986;28;20163;-78
2023/10/13 13:19:33;;;;;;;19.50;5.67;;;22.50;99.90;;;;;;5035178;28;20161;-78
2023/10/13 13:21:59;;;;;;;17.33;5.13;;;22.50;99.90;;;;;;5043737;28;20242;-78
2023/10/13 13:24:29;;;;;;;14.13;5.37;;;22.60;99.90;;;;;;5054863;28;20176;-79
2023/10/13 13:26:55;;;;;;;17.07;5.83;;;22.50;99.90;;;;;;5054709;28;20164;-78
2023/10/13 13:29:21;;;;;;;26.23;5.43;;;22.50;99.90;;;;;;5053750;28;20168;-78
2023/10/13 13:31:47;;;;;;;19.47;5.50;;;22.50;99.90;;;;;;5052254;28;20690;-78
2023/10/13 13:34:12;;;;;;;16.77;5.10;;;22.50;99.90;;;;;;5054878;28;20538;-78
2023/10/13 13:36:40;;;;;;;17.93;5.73;;;22.40;99.90;;;;;;5054526;28;20172;-78
2023/10/13 13:39:07;;;;;;;17.43;5.40;;;22.50;99.90;;;;;;5054662;28;20179;-78
2023/10/13 13:41:33;;;;;;;27.50;5.50;;;22.50;99.90;;;;;;5053993;28;20544;-78
2023/10/13 13:44:13;;;;;;;17.83;5.40;;;22.50;99.90;;;;;;5055677;28;20286;-79
2023/10/13 13:46:41;;;;;;;17.13;5.73;;;22.40;99.90;;;;;;5062408;28;20154;-78
2023/10/13 13:49:07;;;;;;;16.53;5.37;;;22.30;99.90;;;;;;5060254;28;20198;-79
2023/10/13 13:51:33;;;;;;;27.63;5.27;;;22.40;99.90;;;;;;5052839;28;20524;-78
2023/10/13 13:53:59;;;;;;;19.93;5.40;;;22.30;99.90;;;;;;5053211;28;20191;-78
2023/10/13 13:56:27;;;;;;;21.97;5.30;;;22.40;99.90;;;;;;5054422;28;20172;-78
2023/10/13 13:58:54;;;;;;;16.77;4.47;;;22.40;99.90;;;;;;5053854;28;20171;-78
2023/10/13 14:01:25;;;;;;;19.83;5.47;;;22.30;99.90;;;;;;5052793;28;20601;-78
2023/10/13 14:03:51;;;;;;;19.77;6.00;;;22.40;99.90;;;;;;5052481;28;20195;-78
2023/10/13 14:06:25;;;;;;;19.47;5.40;;;22.30;99.90;;;;;;5052762;28;20171;-78
2023/10/13 14:08:54;;;;;;;19.77;4.67;;;22.40;99.90;;;;;;5054623;28;20156;-77
2023/10/13 14:14:11;;;;;;;21.90;5.47;;;22.30;99.90;;;;;;5054422;28;20612;-79
2023/10/13 14:16:44;;;;;;;18.83;5.73;;;22.30;99.90;;;;;;5053170;28;20168;-78
2023/10/13 14:19:11;;;;;;;18.10;5.03;;;22.30;99.90;;;;;;5054945;28;20183;-79
2023/10/13 14:21:37;;;;;;;13.50;4.97;;;22.20;99.90;;;;;;5056711;28;20201;-78
2023/10/13 14:24:12;;;;;;;19.43;5.00;;;22.20;99.90;;;;;;5054173;28;20608;-78
2023/10/13 14:26:38;;;;;;;21.40;5.60;;;22.10;99.90;;;;;;5054796;28;20641;-78
2023/10/13 14:29:07;;;;;;;21.77;5.43;;;22.20;99.90;;;;;;5054256;28;20168;-78
2023/10/13 14:31:36;;;;;;;20.53;5.10;;;22.00;99.90;;;;;;5054541;28;20192;-78
2023/10/13 14:34:03;;;;;;;20.87;5.13;;;22.00;99.90;;;;;;5053785;28;20191;-79
2023/10/13 14:36:28;;;;;;;18.07;5.57;;;22.00;99.90;;;;;;5052777;28;20573;-78
2023/10/13 14:38:55;;;;;;;21.27;5.80;;;22.00;99.90;;;;;;5054525;28;20179;-78
2023/10/13 14:41:21;;;;;;;17.23;5.27;;;22.00;99.90;;;;;;5053801;28;20204;-79
2023/10/13 14:43:47;;;;;;;18.53;4.93;;;21.80;99.90;;;;;;5053979;28;20563;-78
2023/10/13 14:46:16;;;;;;;21.60;4.83;;;21.90;99.90;;;;;;5054047;28;20164;-78
2023/10/13 14:48:43;;;;;;;23.90;5.07;;;21.80;99.90;;;;;;5052305;28;20176;-78
2023/10/13 14:51:12;;;;;;;15.80;5.10;;;21.80;99.90;;;;;;5051996;28;20221;-78
2023/10/13 14:53:43;;;;;;;17.40;5.80;;;21.80;99.90;;;;;;5052285;28;20183;-78
2023/10/13 14:56:12;;;;;;;15.73;5.17;;;21.70;99.90;;;;;;5053192;28;20163;-78
2023/10/13 14:58:44;;;;;;;22.97;5.43;;;21.70;99.90;;;;;;5053290;28;20708;-78
2023/10/13 15:01:18;;;;;;;15.20;4.70;;;21.70;99.90;;;;;;5055102;28;20594;-78
2023/10/13 15:03:44;;;;;;;15.80;4.73;;;21.70;99.90;;;;;;5055061;28;20192;-77
2023/10/13 15:06:20;;;;;;;18.90;4.77;;;21.60;99.90;;;;;;5056755;28;20168;-77
2023/10/13 15:08:47;;;;;;;15.47;4.53;;;21.60;99.90;;;;;;5055743;28;20312;-77
2023/10/13 15:11:13;;;;;;;15.13;4.77;;;21.70;95.70;;;;;;5055022;28;20176;-77
2023/10/13 15:13:42;;;;;;;12.73;4.73;;;21.70;99.90;;;;;;5056044;28;20245;-77
2023/10/13 15:16:18;;;;;;;15.37;5.43;;;21.60;99.90;;;;;;5056159;28;20171;-77
2023/10/13 15:18:51;;;;;;;15.87;4.83;;;21.60;99.90;;;;;;5055476;28;20171;-77
2023/10/13 15:21:36;;;;;;;16.93;5.00;;;21.60;99.90;;;;;;5054175;28;20202;-78
2023/10/13 15:24:20;;;;;;;20.87;4.80;;;21.50;99.90;;;;;;5054346;28;20558;-77
2023/10/13 15:26:49;;;;;;;9.50;4.60;;;21.50;99.90;;;;;;5055448;28;20196;-77
2023/10/13 15:29:24;;;;;;;14.10;5.20;;;21.50;99.90;;;;;;5055912;28;20175;-76
2023/10/13 15:34:26;;;;;;;16.13;4.37;;;21.50;99.90;;;;;;5055880;28;20285;-77
2023/10/13 15:36:54;;;;;;;15.50;4.40;;;21.50;99.90;;;;;;5054092;28;20179;-78
2023/10/13 15:39:31;;;;;;;16.30;4.40;;;21.40;99.90;;;;;;5055804;28;20171;-78
2023/10/13 15:41:59;;;;;;;8.70;4.30;;;21.50;99.90;;;;;;5055592;28;20152;-78
2023/10/13 15:44:29;;;;;;;23.23;5.30;;;21.40;99.90;;;;;;5054079;28;20171;-77
2023/10/13 15:46:56;;;;;;;14.10;4.77;;;21.40;99.90;;;;;;5055214;28;20582;-77
2023/10/13 15:49:22;;;;;;;9.93;4.30;;;21.40;99.90;;;;;;5055402;28;20221;-78
2023/10/13 15:51:49;;;;;;;12.57;4.60;;;21.40;99.90;;;;;;5055484;28;20172;-77
2023/10/13 15:54:16;;;;;;;15.10;5.13;;;21.40;89.00;;;;;;5055409;28;20658;-78
2023/10/13 15:56:43;;;;;;;11.07;4.87;;;21.40;99.90;;;;;;5055327;28;20186;-78
2023/10/13 15:59:09;;;;;;;11.87;4.40;;;21.40;99.90;;;;;;5055800;28;20168;-77
2023/10/13 16:01:35;;;;;;;13.10;4.67;;;21.30;99.90;;;;;;5055173;28;20218;-78
2023/10/13 16:04:08;;;;;;;13.80;5.07;;;21.30;95.20;;;;;;5053646;28;20674;-77
2023/10/13 16:06:33;;;;;;;15.77;4.47;;;21.40;99.90;;;;;;5053912;28;20713;-77
2023/10/13 16:08:59;;;;;;;12.60;5.33;;;21.30;99.90;;;;;;5053799;28;20210;-77
2023/10/13 16:11:24;;;;;;;11.90;4.77;;;21.30;48.00;;;;;;5053446;28;20180;-77
2023/10/13 16:13:53;;;;;;;11.50;4.73;;;21.40;99.90;;;;;;5054758;28;20200;-78
2023/10/13 16:16:22;;;;;;;11.10;4.20;;;21.20;99.90;;;;;;5055082;28;20221;-78
2023/10/13 16:18:49;;;;;;;13.43;4.73;;;21.20;99.90;;;;;;5054909;28;20254;-78
2023/10/13 16:21:15;;;;;;;10.70;4.80;;;21.10;99.90;;;;;;5052610;28;20211;-78
2023/10/13 16:23:44;;;;;;;14.10;4.90;;;21.20;99.90;;;;;;5054478;28;20556;-77
2023/10/13 16:26:09;;;;;;;12.63;4.80;;;21.10;99.90;;;;;;5053384;28;20175;-78